createdAt,value
2018-03-07T00:01:54.755Z,15.47
2018-03-07T00:04:22.319Z,15.93
2018-03-07T00:06:49.896Z,15.60
2018-03-07T00:09:17.452Z,15.43
2018-03-07T00:11:45.110Z,15.13
2018-03-07T00:14:12.776Z,16.03
2018-03-07T00:16:40.421Z,16.03
2018-03-07T00:19:07.996Z,16.17
2018-03-07T00:21:35.664Z,15.90
2018-03-07T00:24:03.210Z,15.93
2018-03-07T00:26:30.784Z,15.60
2018-03-07T00:28:58.333Z,15.83
2018-03-07T00:31:26.012Z,15.70
2018-03-07T00:33:53.650Z,15.77
2018-03-07T00:36:21.215Z,15.13
2018-03-07T00:38:48.770Z,15.30
2018-03-07T00:41:16.328Z,15.57
2018-03-07T00:43:43.892Z,16.83
2018-03-07T00:46:11.444Z,16.23
2018-03-07T00:48:39.027Z,15.67
2018-03-07T00:51:06.600Z,15.80
2018-03-07T00:53:34.163Z,15.83
2018-03-07T00:56:03.209Z,15.27
2018-03-07T00:58:30.794Z,15.43
2018-03-07T01:00:58.350Z,16.57
2018-03-07T01:03:25.892Z,16.10
2018-03-07T01:05:53.571Z,16.30
2018-03-07T01:08:21.150Z,15.50
2018-03-07T01:10:48.817Z,16.03
2018-03-07T01:13:16.390Z,16.17
2018-03-07T01:15:43.942Z,15.97
2018-03-07T01:18:11.614Z,15.63
2018-03-07T01:20:39.199Z,15.73
2018-03-07T01:23:07.517Z,15.33
2018-03-07T01:25:35.064Z,16.53
2018-03-07T01:28:02.619Z,16.50
2018-03-07T01:30:30.165Z,14.83
2018-03-07T01:32:57.770Z,15.27
2018-03-07T01:35:25.341Z,15.90
2018-03-07T01:37:52.892Z,14.90
2018-03-07T01:40:20.447Z,15.00
2018-03-07T01:42:48.024Z,15.50
2018-03-07T01:45:15.567Z,15.93
2018-03-07T01:47:43.119Z,15.20
2018-03-07T01:50:10.690Z,15.77
2018-03-07T01:52:38.242Z,15.60
2018-03-07T01:55:05.809Z,15.70
2018-03-07T01:57:33.491Z,16.07
2018-03-07T02:00:01.151Z,16.80
2018-03-07T02:02:28.714Z,16.40
2018-03-07T02:04:56.282Z,16.60
2018-03-07T02:07:23.824Z,16.17
2018-03-07T02:09:51.351Z,17.23
2018-03-07T02:12:18.958Z,16.83
2018-03-07T02:14:46.511Z,16.60
2018-03-07T02:17:14.061Z,17.73
2018-03-07T02:19:41.643Z,16.60
2018-03-07T02:22:09.307Z,17.53
2018-03-07T02:24:36.853Z,17.37
2018-03-07T02:27:04.413Z,17.40
2018-03-07T02:29:32.014Z,16.90
2018-03-07T02:31:59.646Z,17.10
2018-03-07T02:34:27.412Z,16.90
2018-03-07T02:36:55.080Z,16.63
2018-03-07T02:39:22.623Z,17.57
2018-03-07T02:41:50.298Z,17.53
2018-03-07T02:44:17.969Z,16.90
2018-03-07T02:46:45.508Z,17.00
2018-03-07T02:49:13.085Z,16.93
2018-03-07T02:51:40.650Z,16.87
2018-03-07T02:54:08.186Z,16.70
2018-03-07T02:56:35.865Z,17.17
2018-03-07T02:59:03.412Z,18.07
2018-03-07T03:01:30.992Z,17.03
2018-03-07T03:03:58.657Z,17.10
2018-03-07T03:06:26.206Z,17.73
2018-03-07T03:08:53.761Z,17.23
2018-03-07T03:11:21.338Z,18.10
2018-03-07T03:13:49.009Z,17.27
2018-03-07T03:16:16.659Z,16.70
2018-03-07T03:18:44.325Z,17.73
2018-03-07T03:21:11.987Z,16.97
2018-03-07T03:23:39.589Z,17.77
2018-03-07T03:26:08.028Z,17.37
2018-03-07T03:28:35.674Z,18.70
2018-03-07T03:31:03.221Z,17.10
2018-03-07T03:33:30.814Z,18.03
2018-03-07T03:35:58.378Z,18.40
2018-03-07T03:38:25.925Z,17.77
2018-03-07T03:40:53.589Z,17.73
2018-03-07T03:43:21.152Z,17.90
2018-03-07T03:45:48.699Z,18.27
2018-03-07T03:48:16.296Z,17.53
2018-03-07T03:50:43.846Z,18.50
2018-03-07T03:53:11.395Z,18.33
2018-03-07T03:55:39.101Z,17.87
2018-03-07T03:58:07.430Z,19.00
2018-03-07T04:00:35.013Z,18.00
2018-03-07T04:03:02.664Z,18.03
2018-03-07T04:05:30.222Z,17.53
2018-03-07T04:07:57.759Z,16.93
2018-03-07T04:10:25.326Z,17.20
2018-03-07T04:12:52.878Z,17.50
2018-03-07T04:15:20.425Z,17.67
2018-03-07T04:17:48.775Z,17.63
2018-03-07T04:20:16.317Z,18.13
2018-03-07T04:22:43.854Z,18.23
2018-03-07T04:25:11.425Z,16.77
2018-03-07T04:27:39.057Z,18.23
2018-03-07T04:30:06.649Z,17.33
2018-03-07T04:32:34.267Z,16.97
2018-03-07T04:35:02.802Z,17.13
2018-03-07T04:37:30.358Z,16.73
2018-03-07T04:39:57.935Z,17.20
2018-03-07T04:42:25.585Z,16.20
2018-03-07T04:44:53.266Z,16.63
2018-03-07T04:47:20.916Z,16.80
2018-03-07T04:49:48.479Z,17.50
2018-03-07T04:52:16.048Z,17.13
2018-03-07T04:54:43.619Z,17.23
2018-03-07T04:57:11.266Z,17.70
2018-03-07T04:59:38.915Z,17.83
2018-03-07T05:02:06.586Z,16.87
2018-03-07T05:04:34.285Z,18.07
2018-03-07T05:07:01.842Z,17.73
2018-03-07T05:09:29.487Z,18.30
2018-03-07T05:11:57.145Z,18.33
2018-03-07T05:14:24.792Z,19.43
2018-03-07T05:16:52.454Z,18.13
2018-03-07T05:19:20.009Z,17.57
2018-03-07T05:21:47.579Z,18.53
2018-03-07T05:24:15.145Z,18.33
2018-03-07T05:26:42.698Z,18.23
2018-03-07T05:29:10.262Z,17.40
2018-03-07T05:31:37.936Z,18.33
2018-03-07T05:34:05.596Z,17.20
2018-03-07T05:36:33.158Z,17.93
2018-03-07T05:39:00.733Z,18.13
2018-03-07T05:41:28.281Z,18.53
2018-03-07T05:43:55.833Z,18.60
2018-03-07T05:46:23.405Z,18.60
2018-03-07T05:48:50.958Z,18.27
2018-03-07T05:51:18.532Z,17.37
2018-03-07T05:53:46.116Z,18.23
2018-03-07T05:56:13.692Z,17.47
2018-03-07T05:58:42.018Z,18.80
2018-03-07T06:01:09.684Z,17.47
2018-03-07T06:03:37.252Z,18.80
2018-03-07T06:06:04.903Z,19.13
2018-03-07T06:08:32.469Z,18.87
2018-03-07T06:11:00.029Z,18.90
2018-03-07T06:13:27.574Z,18.27
2018-03-07T06:15:55.151Z,18.50
2018-03-07T06:18:22.711Z,18.40
2018-03-07T06:20:50.267Z,19.07
2018-03-07T06:23:17.852Z,18.40
2018-03-07T06:25:46.185Z,17.77
2018-03-07T06:28:13.738Z,18.27
2018-03-07T06:30:41.301Z,18.03
2018-03-07T06:33:08.905Z,17.23
2018-03-07T06:35:36.467Z,18.13
2018-03-07T06:38:04.034Z,18.03
2018-03-07T06:40:31.579Z,18.07
2018-03-07T06:42:59.159Z,17.73
2018-03-07T06:45:26.806Z,18.03
2018-03-07T06:47:54.474Z,18.00
2018-03-07T06:50:22.124Z,17.93
2018-03-07T06:52:49.802Z,19.67
2018-03-07T06:55:17.364Z,17.70
2018-03-07T06:57:45.691Z,17.60
2018-03-07T07:00:13.287Z,17.13
2018-03-07T07:02:40.852Z,18.00
2018-03-07T07:05:08.421Z,17.50
2018-03-07T07:07:36.015Z,18.47
2018-03-07T07:10:04.322Z,17.87
2018-03-07T07:12:31.886Z,17.27
2018-03-07T07:14:59.458Z,17.47
2018-03-07T07:17:27.031Z,17.13
2018-03-07T07:19:54.690Z,17.30
2018-03-07T07:22:22.267Z,16.43
2018-03-07T07:24:49.909Z,16.53
2018-03-07T07:27:17.475Z,17.00
2018-03-07T07:29:45.134Z,16.27
2018-03-07T07:32:12.701Z,16.97
2018-03-07T07:34:40.345Z,16.43
2018-03-07T07:37:07.919Z,16.13
2018-03-07T07:39:35.591Z,16.57
2018-03-07T07:42:03.251Z,16.77
2018-03-07T07:44:30.906Z,15.87
2018-03-07T07:46:58.461Z,15.60
2018-03-07T07:49:27.734Z,16.20
2018-03-07T07:51:55.304Z,16.73
2018-03-07T07:54:22.898Z,17.67
2018-03-07T07:56:50.574Z,16.47
2018-03-07T07:59:18.137Z,15.97
2018-03-07T08:01:45.703Z,15.10
2018-03-07T08:04:14.042Z,13.93
2018-03-07T08:06:41.602Z,15.30
2018-03-07T08:09:09.167Z,14.27
2018-03-07T08:11:36.737Z,14.47
2018-03-07T08:14:04.395Z,15.73
2018-03-07T08:16:31.951Z,16.53
2018-03-07T08:18:59.491Z,15.63
2018-03-07T08:21:27.068Z,17.90
2018-03-07T08:23:54.636Z,17.60
2018-03-07T08:26:22.188Z,17.60
2018-03-07T08:28:49.761Z,19.33
2018-03-07T08:31:17.325Z,18.60
2018-03-07T08:33:44.995Z,18.23
2018-03-07T08:36:12.551Z,17.87
2018-03-07T08:38:40.117Z,18.57
2018-03-07T08:41:07.776Z,20.20
2018-03-07T08:43:35.422Z,19.60
2018-03-07T08:46:02.986Z,19.77
2018-03-07T08:48:30.551Z,19.03
2018-03-07T08:50:58.217Z,19.00
2018-03-07T08:53:25.771Z,18.47
2018-03-07T08:55:53.328Z,17.77
2018-03-07T08:58:20.996Z,16.90
2018-03-07T09:00:48.553Z,15.90
2018-03-07T09:03:16.129Z,17.77
2018-03-07T09:05:43.720Z,16.77
2018-03-07T09:08:12.148Z,16.30
2018-03-07T09:10:39.697Z,16.00
2018-03-07T09:13:07.256Z,16.10
2018-03-07T09:15:34.809Z,15.90
2018-03-07T09:18:02.410Z,15.23
2018-03-07T09:20:30.077Z,14.80
2018-03-07T09:22:57.645Z,14.60
2018-03-07T09:25:25.202Z,15.07
2018-03-07T09:27:52.776Z,15.37
2018-03-07T09:30:21.849Z,14.63
2018-03-07T09:32:49.428Z,14.67
2018-03-07T09:35:17.070Z,15.20
2018-03-07T09:37:44.628Z,14.97
2018-03-07T09:40:12.208Z,15.37
2018-03-07T09:42:39.771Z,14.93
2018-03-07T09:45:07.367Z,14.80
2018-03-07T09:47:35.699Z,15.53
2018-03-07T09:50:03.265Z,14.27
2018-03-07T09:52:30.822Z,14.50
2018-03-07T09:54:58.483Z,15.30
2018-03-07T09:57:26.042Z,14.90
2018-03-07T09:59:53.598Z,15.53
2018-03-07T10:02:21.149Z,13.60
2018-03-07T10:04:48.713Z,14.87
2018-03-07T10:07:16.507Z,14.00
2018-03-07T10:09:44.105Z,14.13
2018-03-07T10:12:12.431Z,12.97
2018-03-07T10:14:39.972Z,11.40
2018-03-07T10:17:07.554Z,12.20
2018-03-07T10:19:35.230Z,12.43
2018-03-07T10:22:02.891Z,10.53
2018-03-07T10:24:30.569Z,10.73
2018-03-07T10:26:58.225Z,10.47
2018-03-07T10:29:25.881Z,9.97
2018-03-07T10:31:53.525Z,9.97
2018-03-07T10:34:21.161Z,9.23
2018-03-07T10:36:49.439Z,11.00
2018-03-07T10:39:16.981Z,9.80
2018-03-07T10:41:45.319Z,9.97
2018-03-07T10:44:12.910Z,9.63
2018-03-07T10:46:41.293Z,9.40
2018-03-07T10:49:08.918Z,9.33
2018-03-07T10:51:36.475Z,8.97
2018-03-07T10:54:04.034Z,8.93
2018-03-07T10:56:31.719Z,8.53
2018-03-07T10:58:59.265Z,9.43
2018-03-07T11:01:26.934Z,10.60
2018-03-07T11:03:54.499Z,9.47
2018-03-07T11:06:22.050Z,9.90
2018-03-07T11:08:49.611Z,9.30
2018-03-07T11:11:17.422Z,9.03
2018-03-07T11:13:45.748Z,9.23
2018-03-07T11:16:13.315Z,9.53
2018-03-07T11:18:40.866Z,9.03
2018-03-07T11:21:08.409Z,9.53
2018-03-07T11:23:35.940Z,9.10
2018-03-07T11:26:04.264Z,8.73
2018-03-07T11:28:31.824Z,8.57
2018-03-07T11:31:00.223Z,8.07
2018-03-07T11:33:27.868Z,8.53
2018-03-07T11:35:55.408Z,8.20
2018-03-07T11:38:22.953Z,8.83
2018-03-07T11:40:50.554Z,8.50
2018-03-07T11:43:18.260Z,8.03
2018-03-07T11:45:46.570Z,7.43
2018-03-07T11:48:14.134Z,7.87
2018-03-07T11:50:41.674Z,8.83
2018-03-07T11:53:09.288Z,8.80
2018-03-07T11:55:36.935Z,6.93
2018-03-07T11:58:04.499Z,5.90
2018-03-07T12:00:32.148Z,5.00
2018-03-07T12:02:59.725Z,5.10
2018-03-07T12:05:27.274Z,4.90
2018-03-07T12:07:54.845Z,4.60
2018-03-07T12:10:22.395Z,4.20
2018-03-07T12:12:50.960Z,5.10
2018-03-07T12:15:18.517Z,4.87
2018-03-07T12:17:46.106Z,3.80
2018-03-07T12:20:13.670Z,3.60
2018-03-07T12:22:41.225Z,3.67
2018-03-07T12:25:08.799Z,3.60
2018-03-07T12:27:36.396Z,4.00
2018-03-07T12:30:04.006Z,4.00
2018-03-07T12:32:31.673Z,4.30
2018-03-07T12:34:59.238Z,4.17
2018-03-07T12:37:26.793Z,4.07
2018-03-07T12:39:54.379Z,3.90
2018-03-07T12:42:22.714Z,4.30
2018-03-07T12:44:50.269Z,3.50
2018-03-07T12:47:17.831Z,4.00
2018-03-07T12:49:45.389Z,3.30
2018-03-07T12:52:12.978Z,3.50
2018-03-07T12:54:40.544Z,3.60
2018-03-07T12:57:08.208Z,3.50
2018-03-07T12:59:35.763Z,3.53
2018-03-07T13:02:03.310Z,3.07
2018-03-07T13:04:30.878Z,4.10
2018-03-07T13:06:58.515Z,3.70
2018-03-07T13:09:26.092Z,3.80
2018-03-07T13:11:53.674Z,3.20
2018-03-07T13:14:22.712Z,2.83
2018-03-07T13:16:50.275Z,2.70
2018-03-07T13:19:17.835Z,2.87
2018-03-07T13:21:45.381Z,3.00
2018-03-07T13:24:13.712Z,3.20
2018-03-07T13:26:41.272Z,3.27
2018-03-07T13:29:08.807Z,3.17
2018-03-07T13:31:36.373Z,3.00
2018-03-07T13:34:03.945Z,3.00
2018-03-07T13:36:31.485Z,2.97
2018-03-07T13:38:59.046Z,2.50
2018-03-07T13:41:26.629Z,2.70
2018-03-07T13:43:55.208Z,2.30
2018-03-07T13:46:22.771Z,2.40
2018-03-07T13:48:50.319Z,2.70
2018-03-07T13:51:17.867Z,2.40
2018-03-07T13:53:45.433Z,2.47
2018-03-07T13:56:12.980Z,2.30
2018-03-07T13:58:40.544Z,2.37
2018-03-07T14:01:08.107Z,2.43
2018-03-07T14:03:35.640Z,2.43
2018-03-07T14:06:03.966Z,2.30
2018-03-07T14:08:31.515Z,2.50
2018-03-07T14:10:59.060Z,2.20
2018-03-07T14:13:26.685Z,2.57
2018-03-07T14:15:55.027Z,2.73
2018-03-07T14:18:22.576Z,2.57
2018-03-07T14:20:50.142Z,3.00
2018-03-07T14:23:17.897Z,2.80
2018-03-07T14:25:45.444Z,2.90
2018-03-07T14:28:13.031Z,2.87
2018-03-07T14:30:40.599Z,2.80
2018-03-07T14:33:08.139Z,3.10
2018-03-07T14:35:35.721Z,3.20
2018-03-07T14:38:03.384Z,3.00
2018-03-07T14:40:30.964Z,3.20
2018-03-07T14:42:58.619Z,3.20
2018-03-07T14:45:26.258Z,3.10
2018-03-07T14:47:53.790Z,2.97
2018-03-07T14:50:21.375Z,3.50
2018-03-07T14:52:48.926Z,3.10
2018-03-07T14:55:16.470Z,3.23
2018-03-07T14:57:44.014Z,3.70
2018-03-07T15:00:12.329Z,3.60
2018-03-07T15:02:39.873Z,4.37
2018-03-07T15:05:07.423Z,4.87
2018-03-07T15:07:35.023Z,6.17
2018-03-07T15:10:02.581Z,4.33
2018-03-07T15:12:30.127Z,4.20
2018-03-07T15:14:57.683Z,4.87
2018-03-07T15:17:25.227Z,4.03
2018-03-07T15:19:52.768Z,3.80
2018-03-07T15:22:21.105Z,4.30
2018-03-07T15:24:48.660Z,4.43
2018-03-07T15:27:16.204Z,4.67
2018-03-07T15:29:43.788Z,4.60
2018-03-07T15:32:11.378Z,5.03
2018-03-07T15:34:39.719Z,4.60
2018-03-07T15:37:07.271Z,4.83
2018-03-07T15:39:34.849Z,5.60
2018-03-07T15:42:02.400Z,4.83
2018-03-07T15:44:29.969Z,5.10
2018-03-07T15:46:57.567Z,5.37
2018-03-07T15:49:25.101Z,5.43
2018-03-07T15:51:53.461Z,4.90
2018-03-07T15:54:21.041Z,5.33
2018-03-07T15:56:48.603Z,5.67
2018-03-07T15:59:16.179Z,6.30
2018-03-07T16:01:44.487Z,6.50
2018-03-07T16:04:12.073Z,6.00
2018-03-07T16:06:39.627Z,6.10
2018-03-07T16:09:07.194Z,6.53
2018-03-07T16:11:34.768Z,5.43
2018-03-07T16:14:02.435Z,5.17
2018-03-07T16:16:29.981Z,5.33
2018-03-07T16:18:57.548Z,6.50
2018-03-07T16:21:25.147Z,6.80
2018-03-07T16:23:53.459Z,7.30
2018-03-07T16:26:21.020Z,8.57
2018-03-07T16:28:48.609Z,44.00
2018-03-07T16:31:16.161Z,15.00
2018-03-07T16:33:43.707Z,10.37
2018-03-07T16:36:11.268Z,8.47
2018-03-07T16:38:38.805Z,8.37
2018-03-07T16:41:06.427Z,9.20
2018-03-07T16:43:34.054Z,7.43
2018-03-07T16:46:01.633Z,7.27
2018-03-07T16:48:29.178Z,6.63
2018-03-07T16:50:56.833Z,6.43
2018-03-07T16:53:24.418Z,6.30
2018-03-07T16:55:51.971Z,6.27
2018-03-07T16:58:19.599Z,6.23
2018-03-07T17:00:47.156Z,7.13
2018-03-07T17:03:14.699Z,7.83
2018-03-07T17:05:43.045Z,7.13
2018-03-07T17:08:10.583Z,7.47
2018-03-07T17:10:38.134Z,10.40
2018-03-07T17:13:05.714Z,7.27
2018-03-07T17:15:33.273Z,7.20
2018-03-07T17:18:00.833Z,9.73
2018-03-07T17:20:28.393Z,9.90
2018-03-07T17:22:55.958Z,11.33
2018-03-07T17:25:23.632Z,14.20
2018-03-07T17:27:51.216Z,15.53
2018-03-07T17:30:19.639Z,18.50
2018-03-07T17:32:47.210Z,16.27
2018-03-07T17:35:14.877Z,15.73
2018-03-07T17:37:42.436Z,15.77
2018-03-07T17:40:10.001Z,15.03
2018-03-07T17:42:37.579Z,16.27
2018-03-07T17:45:05.143Z,16.90
2018-03-07T17:47:32.696Z,16.30
2018-03-07T17:50:00.278Z,18.03
2018-03-07T17:52:28.600Z,17.37
2018-03-07T17:54:56.152Z,17.17
2018-03-07T17:57:23.709Z,17.80
2018-03-07T17:59:51.316Z,17.97
2018-03-07T18:02:18.870Z,20.30
2018-03-07T18:04:46.436Z,16.40
2018-03-07T18:07:14.006Z,12.33
2018-03-07T18:09:41.653Z,9.20
2018-03-07T18:12:09.227Z,9.80
2018-03-07T18:14:36.789Z,10.50
2018-03-07T18:17:04.364Z,10.03
2018-03-07T18:19:32.718Z,12.23
2018-03-07T18:22:00.270Z,12.47
2018-03-07T18:24:27.835Z,15.03
2018-03-07T18:26:55.497Z,12.83
2018-03-07T18:29:23.055Z,13.37
2018-03-07T18:31:50.602Z,13.07
2018-03-07T18:34:18.178Z,12.60
2018-03-07T18:36:45.736Z,11.60
2018-03-07T18:39:13.287Z,12.37
2018-03-07T18:41:40.859Z,13.27
2018-03-07T18:44:08.417Z,14.73
2018-03-07T18:46:35.975Z,16.20
2018-03-07T18:49:03.542Z,16.30
2018-03-07T18:51:31.200Z,16.90
2018-03-07T18:53:58.774Z,18.53
2018-03-07T18:56:27.865Z,19.37
2018-03-07T18:58:55.442Z,19.87
2018-03-07T19:01:23.027Z,19.83
2018-03-07T19:03:52.196Z,20.07
2018-03-07T19:06:19.916Z,21.77
2018-03-07T19:08:47.468Z,24.33
2018-03-07T19:11:15.027Z,24.17
2018-03-07T19:13:42.583Z,25.10
2018-03-07T19:16:10.137Z,25.57
2018-03-07T19:18:37.727Z,27.33
2018-03-07T19:21:05.302Z,27.07
2018-03-07T19:23:32.963Z,27.77
2018-03-07T19:26:00.521Z,27.63
2018-03-07T19:28:28.076Z,28.53
2018-03-07T19:30:55.626Z,28.97
2018-03-07T19:33:23.218Z,31.20
2018-03-07T19:35:50.886Z,31.10
2018-03-07T19:38:18.455Z,34.00
2018-03-07T19:40:46.923Z,30.93
2018-03-07T19:43:14.484Z,33.40
2018-03-07T19:45:42.092Z,30.03
2018-03-07T19:48:09.679Z,34.70
2018-03-07T19:50:38.059Z,34.67
2018-03-07T19:53:05.614Z,34.03
2018-03-07T19:55:33.185Z,33.87
2018-03-07T19:58:00.740Z,31.90
2018-03-07T20:00:28.291Z,32.53
2018-03-07T20:02:55.873Z,31.80
2018-03-07T20:05:23.431Z,31.80
2018-03-07T20:07:50.991Z,31.60
2018-03-07T20:10:18.558Z,34.10
2018-03-07T20:12:46.343Z,32.13
2018-03-07T20:15:13.960Z,33.20
2018-03-07T20:17:44.166Z,34.90
2018-03-07T20:20:12.841Z,33.00
2018-03-07T20:22:40.400Z,33.33
2018-03-07T20:25:07.956Z,31.33
2018-03-07T20:27:36.287Z,33.13
2018-03-07T20:30:03.948Z,35.77
2018-03-07T20:32:31.517Z,34.43
2018-03-07T20:34:59.447Z,36.60
2018-03-07T20:37:28.236Z,35.67
2018-03-07T20:39:55.825Z,35.67
2018-03-07T20:42:23.567Z,35.70
2018-03-07T20:44:51.115Z,38.07
2018-03-07T20:47:18.707Z,32.50
2018-03-07T20:49:46.268Z,33.83
2018-03-07T20:52:13.935Z,36.20
2018-03-07T20:54:41.493Z,37.03
2018-03-07T20:57:09.840Z,33.00
2018-03-07T20:59:37.434Z,36.57
2018-03-07T21:02:05.001Z,32.10
2018-03-07T21:04:32.548Z,32.83
2018-03-07T21:07:00.103Z,30.53
2018-03-07T21:09:27.666Z,31.67
2018-03-07T21:11:55.240Z,32.67
2018-03-07T21:14:22.888Z,33.43
2018-03-07T21:16:50.464Z,33.50
2018-03-07T21:19:18.026Z,32.07
2018-03-07T21:21:45.566Z,31.30
2018-03-07T21:24:13.263Z,29.67
2018-03-07T21:26:40.833Z,29.47
2018-03-07T21:29:09.182Z,29.80
2018-03-07T21:31:36.967Z,30.57
2018-03-07T21:34:04.623Z,28.13
2018-03-07T21:36:32.173Z,26.47
2018-03-07T21:38:59.817Z,27.13
2018-03-07T21:41:27.372Z,26.00
2018-03-07T21:43:55.036Z,25.63
2018-03-07T21:46:22.594Z,25.37
2018-03-07T21:48:50.150Z,23.23
2018-03-07T21:51:17.704Z,24.03
2018-03-07T21:53:45.271Z,23.77
2018-03-07T21:56:12.824Z,22.93
2018-03-07T21:58:40.421Z,23.13
2018-03-07T22:01:08.005Z,22.20
2018-03-07T22:03:36.348Z,22.47
2018-03-07T22:06:04.001Z,22.87
2018-03-07T22:08:31.685Z,21.00
2018-03-07T22:10:59.334Z,20.60
2018-03-07T22:13:26.904Z,20.23
2018-03-07T22:15:54.456Z,18.67
2018-03-07T22:18:22.020Z,16.97
2018-03-07T22:20:49.566Z,15.47
2018-03-07T22:23:17.137Z,16.27
2018-03-07T22:25:44.676Z,16.63
2018-03-07T22:28:12.270Z,15.00
2018-03-07T22:30:39.841Z,15.33
2018-03-07T22:33:07.387Z,14.07
2018-03-07T22:35:34.984Z,13.53
2018-03-07T22:38:03.329Z,13.53
2018-03-07T22:40:31.064Z,11.60
2018-03-07T22:42:58.621Z,12.43
2018-03-07T22:45:26.212Z,10.80
2018-03-07T22:47:53.871Z,11.33
2018-03-07T22:50:21.419Z,10.87
2018-03-07T22:52:49.094Z,11.33
2018-03-07T22:55:16.761Z,10.10
2018-03-07T22:57:44.316Z,9.57
2018-03-07T23:00:25.480Z,10.20
2018-03-07T23:02:53.027Z,9.40
2018-03-07T23:05:20.569Z,10.07
2018-03-07T23:07:48.880Z,9.70
2018-03-07T23:10:16.464Z,9.67
2018-03-07T23:12:44.148Z,9.50
2018-03-07T23:15:12.502Z,8.53
2018-03-07T23:17:40.154Z,9.13
2018-03-07T23:20:07.691Z,8.50
2018-03-07T23:22:35.274Z,8.30
2018-03-07T23:25:02.858Z,8.73
2018-03-07T23:27:30.431Z,9.17
2018-03-07T23:29:58.757Z,8.03
2018-03-07T23:32:26.314Z,8.10
2018-03-07T23:34:53.847Z,7.93
2018-03-07T23:37:22.170Z,8.00
2018-03-07T23:39:49.733Z,7.70
2018-03-07T23:42:17.300Z,8.00
2018-03-07T23:44:44.915Z,7.60
2018-03-07T23:47:13.224Z,7.77
2018-03-07T23:49:40.782Z,8.20
2018-03-07T23:52:08.345Z,8.07
2018-03-07T23:54:35.914Z,9.07
2018-03-07T23:57:03.475Z,9.33
2018-03-07T23:59:31.133Z,8.37
